createdAt,value
2023-02-15T00:02:02.650Z,9.72
2023-02-15T00:04:47.567Z,9.72
2023-02-15T00:07:16.639Z,9.73
2023-02-15T00:09:44.011Z,9.73
2023-02-15T00:12:11.248Z,9.74
2023-02-15T00:14:38.374Z,9.75
2023-02-15T00:17:05.547Z,9.77
2023-02-15T00:19:32.707Z,9.77
2023-02-15T00:21:59.744Z,9.77
2023-02-15T00:24:27.025Z,9.77
2023-02-15T00:26:54.045Z,9.76
2023-02-15T00:29:21.700Z,9.76
2023-02-15T00:31:49.794Z,9.74
2023-02-15T00:34:18.699Z,9.75
2023-02-15T00:36:46.281Z,9.76
2023-02-15T00:39:13.825Z,9.76
2023-02-15T00:41:40.828Z,9.79
2023-02-15T00:44:08.080Z,9.75
2023-02-15T00:46:35.445Z,9.74
2023-02-15T00:49:02.441Z,9.74
2023-02-15T00:51:29.773Z,9.75
2023-02-15T00:53:56.745Z,9.77
2023-02-15T00:56:23.901Z,9.77
2023-02-15T00:58:50.837Z,9.77
2023-02-15T01:01:19.193Z,9.77
2023-02-15T01:03:47.866Z,9.79
2023-02-15T01:06:15.776Z,9.78
2023-02-15T01:08:42.980Z,9.81
2023-02-15T01:11:11.719Z,9.83
2023-02-15T01:13:39.268Z,9.86
2023-02-15T01:16:06.668Z,9.86
2023-02-15T01:18:34.330Z,9.83
2023-02-15T01:21:02.079Z,9.80
2023-02-15T01:23:29.193Z,9.80
2023-02-15T01:25:56.271Z,9.79
2023-02-15T01:28:23.266Z,9.78
2023-02-15T01:30:50.446Z,9.80
2023-02-15T01:33:19.192Z,9.82
2023-02-15T01:35:47.584Z,9.80
2023-02-15T01:38:15.072Z,9.78
2023-02-15T01:40:42.634Z,9.75
2023-02-15T01:43:12.250Z,9.72
2023-02-15T01:45:40.342Z,9.74
2023-02-15T01:48:12.712Z,9.74
2023-02-15T01:50:42.304Z,9.73
2023-02-15T01:53:12.503Z,9.70
2023-02-15T01:55:42.022Z,9.68
2023-02-15T01:58:09.187Z,9.65
2023-02-15T02:00:36.373Z,9.61
2023-02-15T02:03:04.958Z,9.59
2023-02-15T02:05:32.392Z,9.59
2023-02-15T02:08:00.308Z,9.59
2023-02-15T02:10:27.355Z,9.57
2023-02-15T02:12:57.350Z,9.53
2023-02-15T02:15:28.635Z,9.53
2023-02-15T02:18:01.763Z,9.48
2023-02-15T02:20:31.613Z,9.46
2023-02-15T02:22:59.924Z,9.48
2023-02-15T02:25:29.818Z,9.47
2023-02-15T02:28:06.402Z,9.47
2023-02-15T02:30:36.410Z,9.45
2023-02-15T02:35:39.828Z,9.49
2023-02-15T02:38:09.808Z,9.49
2023-02-15T02:40:39.763Z,9.50
2023-02-15T02:43:11.826Z,9.47
2023-02-15T02:45:42.317Z,9.45
2023-02-15T02:48:12.008Z,9.42
2023-02-15T02:50:41.206Z,9.37
2023-02-15T02:53:08.158Z,9.34
2023-02-15T02:55:39.513Z,9.32
2023-02-15T02:58:09.507Z,9.29
2023-02-15T03:00:38.224Z,9.27
2023-02-15T03:03:07.868Z,9.25
2023-02-15T03:05:36.481Z,9.22
2023-02-15T03:08:07.216Z,9.22
2023-02-15T03:10:36.173Z,9.21
2023-02-15T03:13:03.691Z,9.18
2023-02-15T03:15:52.604Z,9.15
2023-02-15T03:18:22.114Z,9.13
2023-02-15T03:20:49.559Z,9.12
2023-02-15T03:23:19.673Z,9.10
2023-02-15T03:25:50.675Z,9.08
2023-02-15T03:28:22.998Z,9.06
2023-02-15T03:30:53.567Z,9.05
2023-02-15T03:33:21.847Z,9.03
2023-02-15T03:35:53.927Z,9.02
2023-02-15T03:38:26.004Z,8.99
2023-02-15T03:40:57.443Z,8.96
2023-02-15T03:43:31.996Z,8.95
2023-02-15T03:46:03.062Z,8.94
2023-02-15T03:48:32.960Z,8.91
2023-02-15T03:51:06.582Z,8.90
2023-02-15T03:53:33.487Z,8.89
2023-02-15T03:56:00.923Z,8.86
2023-02-15T03:58:31.133Z,8.84
2023-02-15T04:01:01.570Z,8.81
2023-02-15T04:03:32.435Z,8.78
2023-02-15T04:05:59.481Z,8.77
2023-02-15T04:08:46.227Z,8.76
2023-02-15T04:11:13.205Z,8.73
2023-02-15T04:13:40.414Z,8.73
2023-02-15T04:16:08.463Z,8.72
2023-02-15T04:18:39.133Z,8.68
2023-02-15T04:21:09.042Z,8.67
2023-02-15T04:23:39.196Z,8.67
2023-02-15T04:26:06.104Z,8.65
2023-02-15T04:28:33.029Z,8.65
2023-02-15T04:30:59.890Z,8.64
2023-02-15T04:33:26.836Z,8.63
2023-02-15T04:35:53.761Z,8.63
2023-02-15T04:38:20.712Z,8.65
2023-02-15T04:40:50.994Z,8.64
2023-02-15T04:43:17.895Z,8.63
2023-02-15T04:45:48.895Z,8.64
2023-02-15T04:48:16.069Z,8.63
2023-02-15T04:50:43.117Z,8.63
2023-02-15T04:53:10.016Z,8.62
2023-02-15T04:55:36.875Z,8.59
2023-02-15T04:58:03.753Z,8.57
2023-02-15T05:00:30.707Z,8.54
2023-02-15T05:02:57.593Z,8.57
2023-02-15T05:05:24.476Z,8.59
2023-02-15T05:07:51.269Z,8.57
2023-02-15T05:10:18.551Z,8.58
2023-02-15T05:12:45.443Z,8.58
2023-02-15T05:15:12.387Z,8.59
2023-02-15T05:17:39.411Z,8.61
2023-02-15T05:20:08.010Z,8.58
2023-02-15T05:22:35.100Z,8.54
2023-02-15T05:25:05.329Z,8.53
2023-02-15T05:27:35.422Z,8.54
2023-02-15T05:30:02.739Z,8.55
2023-02-15T05:32:29.837Z,8.55
2023-02-15T05:34:56.919Z,8.57
2023-02-15T05:37:23.927Z,8.59
2023-02-15T05:39:50.955Z,8.60
2023-02-15T05:42:18.009Z,8.57
2023-02-15T05:44:45.067Z,8.59
2023-02-15T05:47:12.249Z,8.63
2023-02-15T05:49:39.286Z,8.59
2023-02-15T05:52:06.243Z,8.55
2023-02-15T05:54:33.304Z,8.50
2023-02-15T05:57:00.263Z,8.48
2023-02-15T05:59:27.374Z,8.48
2023-02-15T06:01:54.636Z,8.47
2023-02-15T06:04:21.789Z,8.46
2023-02-15T06:06:48.641Z,8.50
2023-02-15T06:09:15.766Z,8.54
2023-02-15T06:11:42.881Z,8.56
2023-02-15T06:14:09.715Z,8.56
2023-02-15T06:16:36.604Z,8.57
2023-02-15T06:19:03.780Z,8.57
2023-02-15T06:21:31.360Z,8.55
2023-02-15T06:23:58.828Z,8.57
2023-02-15T06:26:25.842Z,8.59
2023-02-15T06:28:52.720Z,8.58
2023-02-15T06:31:19.798Z,8.53
2023-02-15T06:33:46.976Z,8.48
2023-02-15T06:36:13.834Z,8.47
2023-02-15T06:38:40.878Z,8.51
2023-02-15T06:41:07.856Z,8.53
2023-02-15T06:43:35.532Z,8.54
2023-02-15T06:46:02.890Z,8.55
2023-02-15T06:48:30.075Z,8.56
2023-02-15T06:50:56.967Z,8.57
2023-02-15T06:53:23.932Z,8.58
2023-02-15T06:55:50.817Z,8.57
2023-02-15T06:58:17.835Z,8.54
2023-02-15T07:00:44.668Z,8.53
2023-02-15T07:03:14.568Z,8.56
2023-02-15T07:05:41.521Z,8.56
2023-02-15T07:08:08.476Z,8.55
2023-02-15T07:10:35.522Z,8.56
2023-02-15T07:13:03.031Z,8.58
2023-02-15T07:15:29.987Z,8.60
2023-02-15T07:17:58.577Z,8.58
2023-02-15T07:20:25.511Z,8.59
2023-02-15T07:22:52.489Z,8.59
2023-02-15T07:25:19.733Z,8.59
2023-02-15T07:27:48.863Z,8.58
2023-02-15T07:30:16.982Z,8.58
2023-02-15T07:32:47.216Z,8.58
2023-02-15T07:35:14.317Z,8.58
2023-02-15T07:37:41.294Z,8.58
2023-02-15T07:40:08.632Z,8.60
2023-02-15T07:42:39.196Z,8.64
2023-02-15T07:45:06.323Z,8.67
2023-02-15T07:47:33.248Z,8.72
2023-02-15T07:50:00.241Z,8.76
2023-02-15T07:52:27.216Z,8.74
2023-02-15T07:54:54.247Z,8.75
2023-02-15T07:57:21.450Z,8.80
2023-02-15T07:59:48.409Z,8.83
2023-02-15T08:02:17.548Z,8.89
2023-02-15T08:04:45.382Z,8.93
2023-02-15T08:07:12.310Z,8.94
2023-02-15T08:09:39.272Z,8.97
2023-02-15T08:12:07.687Z,8.98
2023-02-15T08:14:34.933Z,9.02
2023-02-15T08:17:06.201Z,9.08
2023-02-15T08:19:34.002Z,9.11
2023-02-15T08:22:02.451Z,9.19
2023-02-15T08:24:31.193Z,9.21
2023-02-15T08:26:59.642Z,9.22
2023-02-15T08:29:28.635Z,9.26
2023-02-15T08:32:00.070Z,9.31
2023-02-15T08:34:27.728Z,9.36
2023-02-15T08:36:54.844Z,9.40
2023-02-15T08:39:22.728Z,9.45
2023-02-15T08:41:49.945Z,9.51
2023-02-15T08:44:18.286Z,9.58
2023-02-15T08:46:46.297Z,9.70
2023-02-15T08:49:14.633Z,9.85
2023-02-15T08:51:41.848Z,9.95
2023-02-15T08:54:11.021Z,9.98
2023-02-15T08:56:38.912Z,10.01
2023-02-15T08:59:06.687Z,10.04
2023-02-15T09:01:34.978Z,10.07
2023-02-15T09:04:03.392Z,10.11
2023-02-15T09:06:30.771Z,10.19
2023-02-15T09:08:58.057Z,10.23
2023-02-15T09:11:26.847Z,10.29
2023-02-15T09:13:55.176Z,10.32
2023-02-15T09:16:22.923Z,10.38
2023-02-15T09:18:50.697Z,10.40
2023-02-15T09:21:20.403Z,10.44
2023-02-15T09:23:48.822Z,10.47
2023-02-15T09:26:17.819Z,10.47
2023-02-15T09:28:45.230Z,10.49
2023-02-15T09:31:13.568Z,10.51
2023-02-15T09:33:41.834Z,10.56
2023-02-15T09:36:11.918Z,10.61
2023-02-15T09:38:38.983Z,10.68
2023-02-15T09:41:09.226Z,10.76
2023-02-15T09:43:43.294Z,10.83
2023-02-15T09:46:17.738Z,10.92
2023-02-15T09:48:47.487Z,11.04
2023-02-15T09:51:17.644Z,11.14
2023-02-15T09:53:47.805Z,11.22
2023-02-15T09:56:21.110Z,11.28
2023-02-15T09:58:48.747Z,11.34
2023-02-15T10:01:20.975Z,11.35
2023-02-15T10:03:51.262Z,11.39
2023-02-15T10:06:22.214Z,11.38
2023-02-15T10:08:49.815Z,11.40
2023-02-15T10:11:21.333Z,11.45
2023-02-15T10:13:51.952Z,11.47
2023-02-15T10:16:24.143Z,11.49
2023-02-15T10:18:54.470Z,11.53
2023-02-15T10:21:30.698Z,11.57
2023-02-15T10:23:59.422Z,11.61
2023-02-15T10:26:35.485Z,11.64
2023-02-15T10:29:05.649Z,11.67
2023-02-15T10:31:36.141Z,11.69
2023-02-15T10:34:13.571Z,11.74
2023-02-15T10:36:43.845Z,11.79
2023-02-15T10:39:12.377Z,11.85
2023-02-15T10:41:42.768Z,11.90
2023-02-15T10:44:13.033Z,11.93
2023-02-15T10:46:41.665Z,11.97
2023-02-15T10:49:11.821Z,12.00
2023-02-15T10:51:45.971Z,12.03
2023-02-15T10:54:21.276Z,12.06
2023-02-15T10:56:49.785Z,12.08
2023-02-15T10:59:17.730Z,12.09
2023-02-15T11:01:46.170Z,12.11
2023-02-15T11:04:17.462Z,12.14
2023-02-15T11:06:49.737Z,12.17
2023-02-15T11:09:19.470Z,12.19
2023-02-15T11:11:49.547Z,12.21
2023-02-15T11:14:21.630Z,12.28
2023-02-15T11:16:52.290Z,12.34
2023-02-15T11:19:23.190Z,12.42
2023-02-15T11:21:52.049Z,12.53
2023-02-15T11:24:21.390Z,12.58
2023-02-15T11:26:51.883Z,12.64
2023-02-15T11:29:24.619Z,12.69
2023-02-15T11:31:55.885Z,12.72
2023-02-15T11:34:24.473Z,12.77
2023-02-15T11:36:53.696Z,12.80
2023-02-15T11:39:22.453Z,12.84
2023-02-15T11:41:53.482Z,12.87
2023-02-15T11:44:24.460Z,12.93
2023-02-15T11:46:51.787Z,12.94
2023-02-15T11:49:22.144Z,12.98
2023-02-15T11:51:51.979Z,13.04
2023-02-15T11:54:23.313Z,13.08
2023-02-15T11:56:50.733Z,13.13
2023-02-15T11:59:24.607Z,13.19
2023-02-15T12:01:52.738Z,13.25
2023-02-15T12:04:23.081Z,13.30
2023-02-15T12:06:53.535Z,13.35
2023-02-15T12:09:26.376Z,13.41
2023-02-15T12:11:53.687Z,13.48
2023-02-15T12:14:21.661Z,13.53
2023-02-15T12:16:49.163Z,13.56
2023-02-15T12:19:19.559Z,13.61
2023-02-15T12:21:52.687Z,13.64
2023-02-15T12:24:22.288Z,13.69
2023-02-15T12:26:52.604Z,13.74
2023-02-15T12:29:29.128Z,13.82
2023-02-15T12:31:56.486Z,13.89
2023-02-15T12:34:27.264Z,13.93
2023-02-15T12:36:59.272Z,13.98
2023-02-15T12:39:29.093Z,14.05
2023-02-15T12:41:58.887Z,14.10
2023-02-15T12:44:30.212Z,14.17
2023-02-15T12:46:59.624Z,14.24
2023-02-15T12:49:27.808Z,14.28
2023-02-15T12:51:57.415Z,14.34
2023-02-15T12:54:28.042Z,14.38
2023-02-15T12:56:55.803Z,14.43
2023-02-15T12:59:23.984Z,14.48
2023-02-15T13:01:52.952Z,14.51
2023-02-15T13:04:23.408Z,14.55
2023-02-15T13:06:53.215Z,14.61
2023-02-15T13:09:22.454Z,14.63
2023-02-15T13:11:51.343Z,14.69
2023-02-15T13:14:23.400Z,14.75
2023-02-15T13:16:53.660Z,14.79
2023-02-15T13:19:21.341Z,14.80
2023-02-15T13:21:50.134Z,14.85
2023-02-15T13:24:20.955Z,14.88
2023-02-15T13:26:49.406Z,14.93
2023-02-15T13:29:19.787Z,14.96
2023-02-15T13:31:47.632Z,15.04
2023-02-15T13:34:21.274Z,15.07
2023-02-15T13:36:52.057Z,15.11
2023-02-15T13:39:24.536Z,15.12
2023-02-15T13:41:53.786Z,15.15
2023-02-15T13:44:24.140Z,15.16
2023-02-15T13:46:54.424Z,15.21
2023-02-15T13:49:22.797Z,15.26
2023-02-15T13:51:53.095Z,15.34
2023-02-15T13:54:21.638Z,15.39
2023-02-15T13:56:52.072Z,15.44
2023-02-15T13:59:22.382Z,15.46
2023-02-15T14:01:53.025Z,15.48
2023-02-15T14:04:23.652Z,15.51
2023-02-15T14:07:00.365Z,15.52
2023-02-15T14:09:28.392Z,15.53
2023-02-15T14:11:58.925Z,15.56
2023-02-15T14:14:29.367Z,15.58
2023-02-15T14:17:06.685Z,15.60
2023-02-15T14:19:38.383Z,15.59
2023-02-15T14:22:10.657Z,15.59
2023-02-15T14:24:44.698Z,15.63
2023-02-15T14:27:15.182Z,15.65
2023-02-15T14:29:43.166Z,15.65
2023-02-15T14:32:13.571Z,15.69
2023-02-15T14:34:44.057Z,15.69
2023-02-15T14:37:13.741Z,15.71
2023-02-15T14:39:44.700Z,15.74
2023-02-15T14:42:15.018Z,15.75
2023-02-15T14:44:45.203Z,15.75
2023-02-15T14:47:19.648Z,15.79
2023-02-15T14:49:47.024Z,15.80
2023-02-15T14:52:14.496Z,15.82
2023-02-15T14:54:42.152Z,15.86
2023-02-15T14:57:10.002Z,15.87
2023-02-15T14:59:40.217Z,15.89
2023-02-15T15:02:07.904Z,15.90
2023-02-15T15:04:36.381Z,15.88
2023-02-15T15:07:09.578Z,15.93
2023-02-15T15:09:39.663Z,15.94
2023-02-15T15:12:10.073Z,15.93
2023-02-15T15:14:38.591Z,15.91
2023-02-15T15:17:06.607Z,15.89
2023-02-15T15:19:50.904Z,15.91
2023-02-15T15:22:22.154Z,15.89
2023-02-15T15:24:49.705Z,15.86
2023-02-15T15:27:20.149Z,15.86
2023-02-15T15:29:47.590Z,15.86
2023-02-15T15:32:20.628Z,15.87
2023-02-15T15:34:50.959Z,15.87
2023-02-15T15:37:21.429Z,15.87
2023-02-15T15:39:51.929Z,15.85
2023-02-15T15:42:22.143Z,15.82
2023-02-15T15:44:50.800Z,15.80
2023-02-15T15:47:26.357Z,15.80
2023-02-15T15:49:57.124Z,15.78
2023-02-15T15:52:25.976Z,15.72
2023-02-15T15:54:56.616Z,15.67
2023-02-15T15:57:29.219Z,15.65
2023-02-15T16:00:00.049Z,15.61
2023-02-15T16:02:27.954Z,15.57
2023-02-15T16:04:55.485Z,15.54
2023-02-15T16:07:25.875Z,15.52
2023-02-15T16:09:56.329Z,15.50
2023-02-15T16:12:24.884Z,15.48
2023-02-15T16:14:54.371Z,15.44
2023-02-15T16:17:24.039Z,15.41
2023-02-15T16:19:52.610Z,15.38
2023-02-15T16:22:23.268Z,15.35
2023-02-15T16:24:50.988Z,15.30
2023-02-15T16:27:19.459Z,15.25
2023-02-15T16:29:46.733Z,15.21
2023-02-15T16:32:17.070Z,15.17
2023-02-15T16:34:47.480Z,15.16
2023-02-15T16:37:15.881Z,15.11
2023-02-15T16:39:44.477Z,15.08
2023-02-15T16:42:12.773Z,15.04
2023-02-15T16:44:41.778Z,15.01
2023-02-15T16:47:16.123Z,14.94
2023-02-15T16:49:46.396Z,14.88
2023-02-15T16:52:17.212Z,14.84
2023-02-15T16:54:44.571Z,14.80
2023-02-15T16:57:14.964Z,14.77
2023-02-15T16:59:44.943Z,14.73
2023-02-15T17:02:40.302Z,14.68
2023-02-15T17:05:09.078Z,14.60
2023-02-15T17:07:39.960Z,14.58
2023-02-15T17:10:26.890Z,14.53
2023-02-15T17:13:00.945Z,14.49
2023-02-15T17:15:31.296Z,14.45
2023-02-15T17:18:01.414Z,14.44
2023-02-15T17:20:28.896Z,14.38
2023-02-15T17:22:56.416Z,14.31
2023-02-15T17:25:26.818Z,14.28
2023-02-15T17:27:56.599Z,14.24
2023-02-15T17:30:28.915Z,14.20
2023-02-15T17:33:33.796Z,14.16
2023-02-15T17:36:04.235Z,14.12
2023-02-15T17:38:31.783Z,14.09
2023-02-15T17:40:59.658Z,14.06
2023-02-15T17:43:31.456Z,14.02
2023-02-15T17:46:01.442Z,14.01
2023-02-15T17:48:32.155Z,13.98
2023-02-15T17:51:02.133Z,13.96
2023-02-15T17:53:29.736Z,13.96
2023-02-15T17:55:57.140Z,13.96
2023-02-15T17:58:24.695Z,13.95
2023-02-15T18:00:56.860Z,13.95
2023-02-15T18:03:28.716Z,13.95
2023-02-15T18:05:59.268Z,13.93
2023-02-15T18:08:31.184Z,13.89
2023-02-15T18:11:02.087Z,13.88
2023-02-15T18:13:29.697Z,13.86
2023-02-15T18:15:57.219Z,13.86
2023-02-15T18:18:24.846Z,13.86
2023-02-15T18:20:52.480Z,13.85
2023-02-15T18:23:19.896Z,13.81
2023-02-15T18:25:47.755Z,13.79
2023-02-15T18:28:15.280Z,13.78
2023-02-15T18:30:44.416Z,13.75
2023-02-15T18:33:15.189Z,13.73
2023-02-15T18:35:42.378Z,13.75
2023-02-15T18:38:10.710Z,13.76
2023-02-15T18:40:38.099Z,13.75
2023-02-15T18:43:05.530Z,13.75
2023-02-15T18:45:33.817Z,13.73
2023-02-15T18:48:01.474Z,13.69
2023-02-15T18:50:32.006Z,13.64
2023-02-15T18:52:59.254Z,13.61
2023-02-15T18:55:28.543Z,13.60
2023-02-15T18:57:57.430Z,13.60
2023-02-15T19:00:27.350Z,13.62
2023-02-15T19:02:55.244Z,13.63
2023-02-15T19:05:23.844Z,13.63
2023-02-15T19:07:52.813Z,13.62
2023-02-15T19:10:22.712Z,13.59
2023-02-15T19:12:51.944Z,13.55
2023-02-15T19:15:23.028Z,13.53
2023-02-15T19:17:53.084Z,13.54
2023-02-15T19:20:23.478Z,13.54
2023-02-15T19:22:58.305Z,13.52
2023-02-15T19:25:29.404Z,13.51
2023-02-15T19:27:57.258Z,13.50
2023-02-15T19:30:29.871Z,13.50
2023-02-15T19:32:59.490Z,13.45
2023-02-15T19:35:31.007Z,13.43
2023-02-15T19:38:00.275Z,13.41
2023-02-15T19:40:30.613Z,13.38
2023-02-15T19:42:58.774Z,13.35
2023-02-15T19:45:27.425Z,13.34
2023-02-15T19:47:56.329Z,13.33
2023-02-15T19:50:26.777Z,13.27
2023-02-15T19:52:54.724Z,13.27
2023-02-15T19:55:25.000Z,13.26
2023-02-15T19:57:54.054Z,13.22
2023-02-15T20:00:23.601Z,13.20
2023-02-15T20:02:52.154Z,13.19
2023-02-15T20:05:21.694Z,13.18
2023-02-15T20:07:52.029Z,13.15
2023-02-15T20:10:21.990Z,13.17
2023-02-15T20:12:52.839Z,13.16
2023-02-15T20:15:24.001Z,13.15
2023-02-15T20:17:53.733Z,13.09
2023-02-15T20:20:22.619Z,13.09
2023-02-15T20:22:53.112Z,13.07
2023-02-15T20:25:24.450Z,13.06
2023-02-15T20:27:53.080Z,13.02
2023-02-15T20:30:23.043Z,13.05
2023-02-15T20:32:52.239Z,13.01
2023-02-15T20:35:21.829Z,12.98
2023-02-15T20:37:53.010Z,12.96
2023-02-15T20:40:25.338Z,12.97
2023-02-15T20:42:54.901Z,12.92
2023-02-15T20:45:24.428Z,12.91
2023-02-15T20:47:54.587Z,12.96
2023-02-15T20:50:29.609Z,12.98
2023-02-15T20:52:59.997Z,12.98
2023-02-15T20:55:30.946Z,12.96
2023-02-15T20:58:00.853Z,12.96
2023-02-15T21:00:30.641Z,12.97
2023-02-15T21:03:01.076Z,12.95
2023-02-15T21:05:32.699Z,12.94
2023-02-15T21:08:02.420Z,12.90
2023-02-15T21:10:33.551Z,12.91
2023-02-15T21:13:02.856Z,12.92
2023-02-15T21:15:34.962Z,12.92
2023-02-15T21:18:04.918Z,12.93
2023-02-15T21:20:34.647Z,12.94
2023-02-15T21:23:05.101Z,12.91
2023-02-15T21:25:36.705Z,12.94
2023-02-15T21:28:06.436Z,12.93
2023-02-15T21:30:34.481Z,12.89
2023-02-15T21:33:02.326Z,12.90
2023-02-15T21:35:30.484Z,12.90
2023-02-15T21:37:58.833Z,12.86
2023-02-15T21:40:29.982Z,12.87
2023-02-15T21:43:02.637Z,12.85
2023-02-15T21:45:35.145Z,12.88
2023-02-15T21:48:06.266Z,12.88
2023-02-15T21:50:39.130Z,12.87
2023-02-15T21:53:08.365Z,12.86
2023-02-15T21:55:36.647Z,12.84
2023-02-15T21:58:04.509Z,12.81
2023-02-15T22:00:34.006Z,12.82
2023-02-15T22:03:02.664Z,12.82
2023-02-15T22:05:32.329Z,12.82
2023-02-15T22:08:00.487Z,12.81
2023-02-15T22:10:30.629Z,12.84
2023-02-15T22:13:00.472Z,12.80
2023-02-15T22:15:37.015Z,12.76
2023-02-15T22:18:04.923Z,12.76
2023-02-15T22:20:32.737Z,12.76
2023-02-15T22:23:00.372Z,12.75
2023-02-15T22:25:28.119Z,12.77
2023-02-15T22:27:55.673Z,12.77
2023-02-15T22:30:24.272Z,12.78
2023-02-15T22:32:51.574Z,12.79
2023-02-15T22:35:21.363Z,12.80
2023-02-15T22:37:48.862Z,12.78
2023-02-15T22:40:17.338Z,12.78
2023-02-15T22:42:47.399Z,12.77
2023-02-15T22:45:17.822Z,12.80
2023-02-15T22:47:45.747Z,12.78
2023-02-15T22:50:20.042Z,12.75
2023-02-15T22:52:47.300Z,12.76
2023-02-15T22:55:16.367Z,12.72
2023-02-15T22:57:43.781Z,12.72
2023-02-15T23:00:16.107Z,12.70
2023-02-15T23:02:43.217Z,12.71
2023-02-15T23:05:16.966Z,12.71
2023-02-15T23:07:43.985Z,12.72
2023-02-15T23:10:21.383Z,12.70
2023-02-15T23:12:53.071Z,12.69
2023-02-15T23:15:20.194Z,12.70
2023-02-15T23:17:47.226Z,12.71
2023-02-15T23:20:15.503Z,12.74
2023-02-15T23:22:43.768Z,12.73
2023-02-15T23:25:11.736Z,12.73
2023-02-15T23:27:41.991Z,12.71
2023-02-15T23:30:13.541Z,12.68
2023-02-15T23:32:40.935Z,12.67
2023-02-15T23:35:11.109Z,12.65
2023-02-15T23:37:37.997Z,12.60
2023-02-15T23:40:08.420Z,12.56
2023-02-15T23:42:35.958Z,12.50
2023-02-15T23:45:03.378Z,12.49
2023-02-15T23:47:35.846Z,12.47
2023-02-15T23:50:02.813Z,12.43
2023-02-15T23:52:29.727Z,12.41
2023-02-15T23:54:56.612Z,12.40
2023-02-15T23:57:23.600Z,12.37
2023-02-15T23:59:50.640Z,12.36
